sensor_id;sensor_type;location;lat;lon;timestamp;P1;durP1;ratioP1;P2;durP2;ratioP2
42488;SDS011;28118;52.388;9.452;2022-11-15T00:00:56;20.75;;;14.80;;
42488;SDS011;28118;52.388;9.452;2022-11-15T00:03:23;15.65;;;14.02;;
42488;SDS011;28118;52.388;9.452;2022-11-15T00:05:52;17.52;;;15.63;;
42488;SDS011;28118;52.388;9.452;2022-11-15T00:08:18;18.45;;;13.73;;
42488;SDS011;28118;52.388;9.452;2022-11-15T00:10:55;16.38;;;13.75;;
42488;SDS011;28118;52.388;9.452;2022-11-15T00:13:22;16.65;;;13.18;;
42488;SDS011;28118;52.388;9.452;2022-11-15T00:15:50;16.50;;;13.05;;
42488;SDS011;28118;52.388;9.452;2022-11-15T00:18:17;22.23;;;14.50;;
42488;SDS011;28118;52.388;9.452;2022-11-15T00:20:44;16.38;;;14.27;;
42488;SDS011;28118;52.388;9.452;2022-11-15T00:23:11;17.48;;;14.75;;
42488;SDS011;28118;52.388;9.452;2022-11-15T00:25:38;24.70;;;15.77;;
42488;SDS011;28118;52.388;9.452;2022-11-15T00:28:04;18.50;;;16.25;;
42488;SDS011;28118;52.388;9.452;2022-11-15T00:30:31;17.88;;;16.08;;
42488;SDS011;28118;52.388;9.452;2022-11-15T00:33:04;18.00;;;14.32;;
42488;SDS011;28118;52.388;9.452;2022-11-15T00:35:32;19.80;;;14.90;;
42488;SDS011;28118;52.388;9.452;2022-11-15T00:38:00;15.23;;;13.73;;
42488;SDS011;28118;52.388;9.452;2022-11-15T00:40:27;18.50;;;13.00;;
42488;SDS011;28118;52.388;9.452;2022-11-15T00:42:55;15.43;;;12.45;;
42488;SDS011;28118;52.388;9.452;2022-11-15T00:45:22;17.42;;;14.77;;
42488;SDS011;28118;52.388;9.452;2022-11-15T00:47:49;17.23;;;12.05;;
42488;SDS011;28118;52.388;9.452;2022-11-15T00:50:16;15.00;;;13.07;;
42488;SDS011;28118;52.388;9.452;2022-11-15T00:52:42;15.38;;;13.20;;
42488;SDS011;28118;52.388;9.452;2022-11-15T00:55:13;15.18;;;13.20;;
42488;SDS011;28118;52.388;9.452;2022-11-15T00:57:41;16.45;;;12.52;;
42488;SDS011;28118;52.388;9.452;2022-11-15T01:00:08;16.75;;;11.90;;
42488;SDS011;28118;52.388;9.452;2022-11-15T01:02:35;15.02;;;11.93;;
42488;SDS011;28118;52.388;9.452;2022-11-15T01:05:02;14.73;;;11.52;;
42488;SDS011;28118;52.388;9.452;2022-11-15T01:07:28;18.17;;;14.05;;
42488;SDS011;28118;52.388;9.452;2022-11-15T01:09:55;23.33;;;14.07;;
42488;SDS011;28118;52.388;9.452;2022-11-15T01:12:22;14.95;;;13.00;;
42488;SDS011;28118;52.388;9.452;2022-11-15T01:14:49;15.20;;;13.68;;
42488;SDS011;28118;52.388;9.452;2022-11-15T01:17:16;16.40;;;11.82;;
42488;SDS011;28118;52.388;9.452;2022-11-15T01:19:42;12.60;;;11.40;;
42488;SDS011;28118;52.388;9.452;2022-11-15T01:22:09;15.80;;;14.05;;
42488;SDS011;28118;52.388;9.452;2022-11-15T01:24:36;18.50;;;13.02;;
42488;SDS011;28118;52.388;9.452;2022-11-15T01:27:02;14.50;;;13.18;;
42488;SDS011;28118;52.388;9.452;2022-11-15T01:29:29;12.70;;;11.48;;
42488;SDS011;28118;52.388;9.452;2022-11-15T01:31:56;14.63;;;12.77;;
42488;SDS011;28118;52.388;9.452;2022-11-15T01:34:22;13.35;;;11.93;;
42488;SDS011;28118;52.388;9.452;2022-11-15T01:36:49;12.90;;;10.93;;
42488;SDS011;28118;52.388;9.452;2022-11-15T01:39:15;12.23;;;10.07;;
42488;SDS011;28118;52.388;9.452;2022-11-15T01:41:42;14.43;;;13.00;;
42488;SDS011;28118;52.388;9.452;2022-11-15T01:47:23;14.35;;;12.63;;
42488;SDS011;28118;52.388;9.452;2022-11-15T01:52:29;14.85;;;10.32;;
42488;SDS011;28118;52.388;9.452;2022-11-15T01:58:02;14.68;;;10.98;;
42488;SDS011;28118;52.388;9.452;2022-11-15T02:00:31;10.27;;;9.30;;
42488;SDS011;28118;52.388;9.452;2022-11-15T02:02:58;17.67;;;10.38;;
42488;SDS011;28118;52.388;9.452;2022-11-15T02:05:25;10.10;;;9.15;;
42488;SDS011;28118;52.388;9.452;2022-11-15T02:07:51;14.73;;;12.15;;
42488;SDS011;28118;52.388;9.452;2022-11-15T02:10:19;14.25;;;10.82;;
42488;SDS011;28118;52.388;9.452;2022-11-15T02:12:47;11.80;;;10.63;;
42488;SDS011;28118;52.388;9.452;2022-11-15T02:15:15;12.38;;;11.10;;
42488;SDS011;28118;52.388;9.452;2022-11-15T02:23:26;10.07;;;9.20;;
42488;SDS011;28118;52.388;9.452;2022-11-15T02:42:25;14.77;;;11.77;;
42488;SDS011;28118;52.388;9.452;2022-11-15T02:45:24;13.13;;;11.80;;
42488;SDS011;28118;52.388;9.452;2022-11-15T02:47:55;14.93;;;13.27;;
42488;SDS011;28118;52.388;9.452;2022-11-15T02:50:26;13.25;;;11.48;;
42488;SDS011;28118;52.388;9.452;2022-11-15T02:52:55;13.35;;;11.70;;
42488;SDS011;28118;52.388;9.452;2022-11-15T02:55:35;14.70;;;10.82;;
42488;SDS011;28118;52.388;9.452;2022-11-15T03:03:54;13.52;;;12.15;;
42488;SDS011;28118;52.388;9.452;2022-11-15T03:06:49;13.48;;;12.10;;
42488;SDS011;28118;52.388;9.452;2022-11-15T03:12:16;13.77;;;12.25;;
42488;SDS011;28118;52.388;9.452;2022-11-15T03:15:06;11.88;;;10.35;;
42488;SDS011;28118;52.388;9.452;2022-11-15T03:17:36;13.40;;;11.90;;
42488;SDS011;28118;52.388;9.452;2022-11-15T03:20:09;20.58;;;13.73;;
42488;SDS011;28118;52.388;9.452;2022-11-15T03:22:41;14.45;;;12.93;;
42488;SDS011;28118;52.388;9.452;2022-11-15T03:25:10;13.82;;;11.60;;
42488;SDS011;28118;52.388;9.452;2022-11-15T03:27:44;22.10;;;11.38;;
42488;SDS011;28118;52.388;9.452;2022-11-15T03:30:17;17.98;;;12.40;;
42488;SDS011;28118;52.388;9.452;2022-11-15T03:32:46;13.98;;;12.10;;
42488;SDS011;28118;52.388;9.452;2022-11-15T03:35:20;22.98;;;14.75;;
42488;SDS011;28118;52.388;9.452;2022-11-15T03:38:34;14.57;;;13.02;;
42488;SDS011;28118;52.388;9.452;2022-11-15T03:43:42;15.82;;;14.43;;
42488;SDS011;28118;52.388;9.452;2022-11-15T03:46:31;14.82;;;13.25;;
42488;SDS011;28118;52.388;9.452;2022-11-15T03:49:20;16.38;;;12.05;;
42488;SDS011;28118;52.388;9.452;2022-11-15T03:51:51;15.50;;;12.57;;
42488;SDS011;28118;52.388;9.452;2022-11-15T03:54:18;13.75;;;12.38;;
42488;SDS011;28118;52.388;9.452;2022-11-15T03:56:44;14.38;;;12.85;;
42488;SDS011;28118;52.388;9.452;2022-11-15T03:59:11;14.05;;;10.63;;
42488;SDS011;28118;52.388;9.452;2022-11-15T04:01:38;24.75;;;11.32;;
42488;SDS011;28118;52.388;9.452;2022-11-15T04:04:04;13.32;;;11.32;;
42488;SDS011;28118;52.388;9.452;2022-11-15T04:06:31;11.10;;;10.05;;
42488;SDS011;28118;52.388;9.452;2022-11-15T04:08:58;12.13;;;10.32;;
42488;SDS011;28118;52.388;9.452;2022-11-15T04:11:24;12.00;;;9.68;;
42488;SDS011;28118;52.388;9.452;2022-11-15T04:13:51;17.23;;;12.95;;
42488;SDS011;28118;52.388;9.452;2022-11-15T04:16:17;12.57;;;11.35;;
42488;SDS011;28118;52.388;9.452;2022-11-15T04:18:44;12.27;;;10.20;;
42488;SDS011;28118;52.388;9.452;2022-11-15T04:21:31;11.52;;;9.90;;
42488;SDS011;28118;52.388;9.452;2022-11-15T04:24:16;13.15;;;10.57;;
42488;SDS011;28118;52.388;9.452;2022-11-15T04:27:07;12.00;;;9.82;;
42488;SDS011;28118;52.388;9.452;2022-11-15T04:29:34;10.93;;;9.40;;
42488;SDS011;28118;52.388;9.452;2022-11-15T04:32:04;20.33;;;11.48;;
42488;SDS011;28118;52.388;9.452;2022-11-15T04:34:32;15.38;;;9.90;;
42488;SDS011;28118;52.388;9.452;2022-11-15T04:36:59;15.55;;;10.80;;
42488;SDS011;28118;52.388;9.452;2022-11-15T04:39:41;11.40;;;8.68;;
42488;SDS011;28118;52.388;9.452;2022-11-15T04:42:09;14.20;;;11.45;;
42488;SDS011;28118;52.388;9.452;2022-11-15T04:44:36;12.23;;;9.55;;
42488;SDS011;28118;52.388;9.452;2022-11-15T04:47:02;11.40;;;10.18;;
42488;SDS011;28118;52.388;9.452;2022-11-15T04:49:29;10.45;;;8.30;;
42488;SDS011;28118;52.388;9.452;2022-11-15T04:51:56;12.43;;;10.77;;
42488;SDS011;28118;52.388;9.452;2022-11-15T04:54:23;10.07;;;8.68;;
42488;SDS011;28118;52.388;9.452;2022-11-15T04:56:49;10.43;;;9.38;;
42488;SDS011;28118;52.388;9.452;2022-11-15T04:59:16;9.90;;;9.00;;
42488;SDS011;28118;52.388;9.452;2022-11-15T05:01:42;15.95;;;9.40;;
42488;SDS011;28118;52.388;9.452;2022-11-15T05:04:10;10.73;;;9.43;;
42488;SDS011;28118;52.388;9.452;2022-11-15T05:06:47;11.13;;;9.70;;
42488;SDS011;28118;52.388;9.452;2022-11-15T05:09:15;11.13;;;9.75;;
42488;SDS011;28118;52.388;9.452;2022-11-15T05:11:43;9.38;;;8.38;;
42488;SDS011;28118;52.388;9.452;2022-11-15T05:14:10;15.00;;;9.40;;
42488;SDS011;28118;52.388;9.452;2022-11-15T05:16:37;11.40;;;10.30;;
42488;SDS011;28118;52.388;9.452;2022-11-15T05:19:03;12.02;;;9.13;;
42488;SDS011;28118;52.388;9.452;2022-11-15T05:21:30;10.43;;;8.32;;
42488;SDS011;28118;52.388;9.452;2022-11-15T05:23:58;19.13;;;8.27;;
42488;SDS011;28118;52.388;9.452;2022-11-15T05:26:25;10.32;;;7.53;;
42488;SDS011;28118;52.388;9.452;2022-11-15T05:28:53;10.68;;;9.57;;
42488;SDS011;28118;52.388;9.452;2022-11-15T05:31:21;13.18;;;10.07;;
42488;SDS011;28118;52.388;9.452;2022-11-15T05:33:48;10.30;;;9.30;;
42488;SDS011;28118;52.388;9.452;2022-11-15T05:38:58;11.48;;;10.27;;
42488;SDS011;28118;52.388;9.452;2022-11-15T05:41:26;9.77;;;8.90;;
42488;SDS011;28118;52.388;9.452;2022-11-15T05:43:58;8.40;;;7.60;;
42488;SDS011;28118;52.388;9.452;2022-11-15T05:46:27;13.35;;;8.88;;
42488;SDS011;28118;52.388;9.452;2022-11-15T05:48:54;9.98;;;9.02;;
42488;SDS011;28118;52.388;9.452;2022-11-15T05:51:22;9.05;;;8.35;;
42488;SDS011;28118;52.388;9.452;2022-11-15T05:53:49;8.27;;;7.47;;
42488;SDS011;28118;52.388;9.452;2022-11-15T05:56:17;9.57;;;8.63;;
42488;SDS011;28118;52.388;9.452;2022-11-15T05:58:44;9.98;;;8.95;;
42488;SDS011;28118;52.388;9.452;2022-11-15T06:01:11;8.55;;;6.90;;
42488;SDS011;28118;52.388;9.452;2022-11-15T06:03:37;9.70;;;8.32;;
42488;SDS011;28118;52.388;9.452;2022-11-15T06:06:04;9.65;;;7.75;;
42488;SDS011;28118;52.388;9.452;2022-11-15T06:08:31;8.88;;;7.97;;
42488;SDS011;28118;52.388;9.452;2022-11-15T06:11:02;9.20;;;7.68;;
42488;SDS011;28118;52.388;9.452;2022-11-15T06:13:30;10.93;;;7.00;;
42488;SDS011;28118;52.388;9.452;2022-11-15T06:15:57;9.38;;;7.85;;
42488;SDS011;28118;52.388;9.452;2022-11-15T06:18:23;9.10;;;8.30;;
42488;SDS011;28118;52.388;9.452;2022-11-15T06:20:50;7.15;;;6.45;;
42488;SDS011;28118;52.388;9.452;2022-11-15T06:23:17;12.00;;;8.55;;
42488;SDS011;28118;52.388;9.452;2022-11-15T06:25:43;7.22;;;6.53;;
42488;SDS011;28118;52.388;9.452;2022-11-15T06:28:10;9.52;;;6.72;;
42488;SDS011;28118;52.388;9.452;2022-11-15T06:30:36;8.20;;;6.38;;
42488;SDS011;28118;52.388;9.452;2022-11-15T06:33:04;7.47;;;6.68;;
42488;SDS011;28118;52.388;9.452;2022-11-15T06:35:33;7.40;;;6.35;;
42488;SDS011;28118;52.388;9.452;2022-11-15T06:38:08;7.32;;;6.65;;
42488;SDS011;28118;52.388;9.452;2022-11-15T06:40:36;11.20;;;6.28;;
42488;SDS011;28118;52.388;9.452;2022-11-15T06:43:04;8.27;;;7.32;;
42488;SDS011;28118;52.388;9.452;2022-11-15T06:45:32;6.47;;;5.88;;
42488;SDS011;28118;52.388;9.452;2022-11-15T06:47:59;7.90;;;7.15;;
42488;SDS011;28118;52.388;9.452;2022-11-15T06:50:25;8.10;;;6.32;;
42488;SDS011;28118;52.388;9.452;2022-11-15T06:52:52;12.55;;;7.45;;
42488;SDS011;28118;52.388;9.452;2022-11-15T06:55:19;10.23;;;8.45;;
42488;SDS011;28118;52.388;9.452;2022-11-15T06:57:52;6.90;;;6.20;;
42488;SDS011;28118;52.388;9.452;2022-11-15T07:00:19;8.85;;;7.13;;
42488;SDS011;28118;52.388;9.452;2022-11-15T07:02:47;10.52;;;9.13;;
42488;SDS011;28118;52.388;9.452;2022-11-15T07:05:14;16.95;;;8.40;;
42488;SDS011;28118;52.388;9.452;2022-11-15T07:07:41;7.75;;;6.95;;
42488;SDS011;28118;52.388;9.452;2022-11-15T07:10:08;8.77;;;7.63;;
42488;SDS011;28118;52.388;9.452;2022-11-15T07:12:35;13.13;;;8.82;;
42488;SDS011;28118;52.388;9.452;2022-11-15T07:15:01;10.20;;;7.53;;
42488;SDS011;28118;52.388;9.452;2022-11-15T07:17:28;14.05;;;9.05;;
42488;SDS011;28118;52.388;9.452;2022-11-15T07:19:55;8.82;;;7.57;;
42488;SDS011;28118;52.388;9.452;2022-11-15T07:22:21;9.82;;;8.80;;
42488;SDS011;28118;52.388;9.452;2022-11-15T07:24:48;7.03;;;6.38;;
42488;SDS011;28118;52.388;9.452;2022-11-15T07:27:14;9.95;;;7.50;;
42488;SDS011;28118;52.388;9.452;2022-11-15T07:29:41;9.10;;;7.85;;
42488;SDS011;28118;52.388;9.452;2022-11-15T07:32:08;11.35;;;8.75;;
42488;SDS011;28118;52.388;9.452;2022-11-15T07:34:35;15.35;;;9.00;;
42488;SDS011;28118;52.388;9.452;2022-11-15T07:37:02;11.82;;;9.73;;
42488;SDS011;28118;52.388;9.452;2022-11-15T07:39:29;12.68;;;8.55;;
42488;SDS011;28118;52.388;9.452;2022-11-15T07:41:55;11.25;;;9.30;;
42488;SDS011;28118;52.388;9.452;2022-11-15T07:44:42;9.43;;;8.27;;
42488;SDS011;28118;52.388;9.452;2022-11-15T07:47:08;15.02;;;7.45;;
42488;SDS011;28118;52.388;9.452;2022-11-15T07:49:35;11.95;;;7.47;;
42488;SDS011;28118;52.388;9.452;2022-11-15T07:52:02;15.48;;;9.05;;
42488;SDS011;28118;52.388;9.452;2022-11-15T07:54:28;10.02;;;8.02;;
42488;SDS011;28118;52.388;9.452;2022-11-15T07:56:55;8.57;;;7.50;;
42488;SDS011;28118;52.388;9.452;2022-11-15T07:59:22;10.20;;;7.82;;
42488;SDS011;28118;52.388;9.452;2022-11-15T08:01:48;8.75;;;7.85;;
42488;SDS011;28118;52.388;9.452;2022-11-15T08:04:15;8.85;;;7.00;;
42488;SDS011;28118;52.388;9.452;2022-11-15T08:06:42;7.43;;;6.15;;
42488;SDS011;28118;52.388;9.452;2022-11-15T08:09:08;8.57;;;7.78;;
42488;SDS011;28118;52.388;9.452;2022-11-15T08:11:35;6.07;;;5.50;;
42488;SDS011;28118;52.388;9.452;2022-11-15T08:14:01;8.88;;;8.10;;
42488;SDS011;28118;52.388;9.452;2022-11-15T08:16:28;13.52;;;6.55;;
42488;SDS011;28118;52.388;9.452;2022-11-15T08:18:54;7.32;;;6.63;;
42488;SDS011;28118;52.388;9.452;2022-11-15T08:21:21;15.52;;;7.55;;
42488;SDS011;28118;52.388;9.452;2022-11-15T08:23:48;10.98;;;8.40;;
42488;SDS011;28118;52.388;9.452;2022-11-15T08:26:15;10.88;;;9.80;;
42488;SDS011;28118;52.388;9.452;2022-11-15T08:28:42;8.50;;;6.80;;
42488;SDS011;28118;52.388;9.452;2022-11-15T08:31:13;7.30;;;6.65;;
42488;SDS011;28118;52.388;9.452;2022-11-15T08:33:42;8.65;;;7.28;;
42488;SDS011;28118;52.388;9.452;2022-11-15T08:36:14;7.43;;;6.70;;
42488;SDS011;28118;52.388;9.452;2022-11-15T08:38:42;8.40;;;7.43;;
42488;SDS011;28118;52.388;9.452;2022-11-15T08:41:09;9.93;;;8.07;;
42488;SDS011;28118;52.388;9.452;2022-11-15T08:43:40;8.40;;;7.40;;
42488;SDS011;28118;52.388;9.452;2022-11-15T08:46:08;8.25;;;6.50;;
42488;SDS011;28118;52.388;9.452;2022-11-15T08:48:38;10.57;;;7.50;;
42488;SDS011;28118;52.388;9.452;2022-11-15T08:51:05;12.63;;;7.78;;
42488;SDS011;28118;52.388;9.452;2022-11-15T08:53:32;8.43;;;5.97;;
42488;SDS011;28118;52.388;9.452;2022-11-15T08:55:59;9.77;;;7.32;;
42488;SDS011;28118;52.388;9.452;2022-11-15T08:58:26;9.38;;;6.15;;
42488;SDS011;28118;52.388;9.452;2022-11-15T09:00:52;7.38;;;6.00;;
42488;SDS011;28118;52.388;9.452;2022-11-15T09:03:19;7.25;;;5.93;;
42488;SDS011;28118;52.388;9.452;2022-11-15T09:05:46;8.25;;;7.00;;
42488;SDS011;28118;52.388;9.452;2022-11-15T09:08:12;11.13;;;6.57;;
42488;SDS011;28118;52.388;9.452;2022-11-15T09:11:02;8.43;;;6.72;;
42488;SDS011;28118;52.388;9.452;2022-11-15T09:13:30;7.32;;;6.43;;
42488;SDS011;28118;52.388;9.452;2022-11-15T09:15:57;9.85;;;6.85;;
42488;SDS011;28118;52.388;9.452;2022-11-15T09:18:25;11.45;;;6.53;;
42488;SDS011;28118;52.388;9.452;2022-11-15T09:20:56;6.53;;;5.10;;
42488;SDS011;28118;52.388;9.452;2022-11-15T09:23:24;7.47;;;6.72;;
42488;SDS011;28118;52.388;9.452;2022-11-15T09:25:52;6.95;;;6.22;;
42488;SDS011;28118;52.388;9.452;2022-11-15T09:28:25;8.02;;;6.10;;
42488;SDS011;28118;52.388;9.452;2022-11-15T09:30:51;6.93;;;5.18;;
42488;SDS011;28118;52.388;9.452;2022-11-15T09:33:21;4.78;;;4.28;;
42488;SDS011;28118;52.388;9.452;2022-11-15T09:35:48;9.65;;;4.43;;
42488;SDS011;28118;52.388;9.452;2022-11-15T09:38:14;8.88;;;4.63;;
42488;SDS011;28118;52.388;9.452;2022-11-15T09:40:41;7.00;;;5.13;;
42488;SDS011;28118;52.388;9.452;2022-11-15T10:03:14;7.00;;;3.90;;
42488;SDS011;28118;52.388;9.452;2022-11-15T10:05:45;5.10;;;3.75;;
42488;SDS011;28118;52.388;9.452;2022-11-15T10:11:42;7.97;;;3.38;;
42488;SDS011;28118;52.388;9.452;2022-11-15T10:14:13;7.45;;;4.40;;
42488;SDS011;28118;52.388;9.452;2022-11-15T10:25:16;2.85;;;2.60;;
42488;SDS011;28118;52.388;9.452;2022-11-15T10:27:55;4.03;;;3.55;;
42488;SDS011;28118;52.388;9.452;2022-11-15T10:30:29;3.13;;;2.78;;
42488;SDS011;28118;52.388;9.452;2022-11-15T10:35:37;5.10;;;4.03;;
42488;SDS011;28118;52.388;9.452;2022-11-15T10:38:08;4.22;;;3.30;;
42488;SDS011;28118;52.388;9.452;2022-11-15T10:40:36;4.72;;;4.25;;
42488;SDS011;28118;52.388;9.452;2022-11-15T10:43:11;4.15;;;3.55;;
42488;SDS011;28118;52.388;9.452;2022-11-15T10:45:41;6.97;;;3.30;;
42488;SDS011;28118;52.388;9.452;2022-11-15T10:50:38;4.53;;;3.15;;
42488;SDS011;28118;52.388;9.452;2022-11-15T10:53:49;7.13;;;3.28;;
42488;SDS011;28118;52.388;9.452;2022-11-15T10:56:24;2.70;;;2.42;;
42488;SDS011;28118;52.388;9.452;2022-11-15T10:58:53;3.92;;;3.50;;
42488;SDS011;28118;52.388;9.452;2022-11-15T11:01:24;4.20;;;3.22;;
42488;SDS011;28118;52.388;9.452;2022-11-15T11:04:06;5.80;;;3.47;;
42488;SDS011;28118;52.388;9.452;2022-11-15T11:06:51;3.47;;;2.60;;
42488;SDS011;28118;52.388;9.452;2022-11-15T11:11:57;4.97;;;3.83;;
42488;SDS011;28118;52.388;9.452;2022-11-15T11:20:00;3.08;;;2.80;;
42488;SDS011;28118;52.388;9.452;2022-11-15T11:22:42;2.80;;;2.08;;
42488;SDS011;28118;52.388;9.452;2022-11-15T11:31:00;6.68;;;3.33;;
42488;SDS011;28118;52.388;9.452;2022-11-15T11:47:40;3.25;;;2.50;;
42488;SDS011;28118;52.388;9.452;2022-11-15T11:50:27;3.28;;;2.55;;
42488;SDS011;28118;52.388;9.452;2022-11-15T11:55:31;4.00;;;2.45;;
42488;SDS011;28118;52.388;9.452;2022-11-15T11:58:09;10.32;;;2.72;;
42488;SDS011;28118;52.388;9.452;2022-11-15T12:00:51;9.73;;;2.72;;
42488;SDS011;28118;52.388;9.452;2022-11-15T12:03:25;5.10;;;3.45;;
42488;SDS011;28118;52.388;9.452;2022-11-15T12:06:18;2.70;;;2.38;;
42488;SDS011;28118;52.388;9.452;2022-11-15T12:14:40;3.53;;;2.28;;
42488;SDS011;28118;52.388;9.452;2022-11-15T12:19:38;5.30;;;3.00;;
42488;SDS011;28118;52.388;9.452;2022-11-15T12:22:08;4.30;;;3.22;;
42488;SDS011;28118;52.388;9.452;2022-11-15T12:24:41;3.53;;;2.85;;
42488;SDS011;28118;52.388;9.452;2022-11-15T12:27:17;9.23;;;3.25;;
42488;SDS011;28118;52.388;9.452;2022-11-15T12:29:55;10.02;;;2.65;;
42488;SDS011;28118;52.388;9.452;2022-11-15T12:34:51;3.10;;;2.00;;
42488;SDS011;28118;52.388;9.452;2022-11-15T12:37:32;3.08;;;1.90;;
42488;SDS011;28118;52.388;9.452;2022-11-15T12:40:17;3.65;;;2.92;;
42488;SDS011;28118;52.388;9.452;2022-11-15T12:45:44;3.47;;;2.75;;
42488;SDS011;28118;52.388;9.452;2022-11-15T12:51:02;4.53;;;3.13;;
42488;SDS011;28118;52.388;9.452;2022-11-15T12:53:30;6.30;;;3.60;;
42488;SDS011;28118;52.388;9.452;2022-11-15T12:58:47;12.82;;;3.47;;
42488;SDS011;28118;52.388;9.452;2022-11-15T13:12:00;7.05;;;3.47;;
42488;SDS011;28118;52.388;9.452;2022-11-15T13:19:49;8.40;;;4.15;;
42488;SDS011;28118;52.388;9.452;2022-11-15T13:22:23;4.63;;;3.10;;
42488;SDS011;28118;52.388;9.452;2022-11-15T13:30:52;9.20;;;4.15;;
42488;SDS011;28118;52.388;9.452;2022-11-15T13:36:15;5.88;;;2.85;;
42488;SDS011;28118;52.388;9.452;2022-11-15T13:38:54;4.38;;;3.35;;
42488;SDS011;28118;52.388;9.452;2022-11-15T13:41:25;4.47;;;4.05;;
42488;SDS011;28118;52.388;9.452;2022-11-15T13:43:55;4.47;;;3.47;;
42488;SDS011;28118;52.388;9.452;2022-11-15T13:46:32;5.07;;;4.50;;
42488;SDS011;28118;52.388;9.452;2022-11-15T13:49:00;5.97;;;5.13;;
42488;SDS011;28118;52.388;9.452;2022-11-15T13:59:28;7.22;;;5.43;;
42488;SDS011;28118;52.388;9.452;2022-11-15T14:01:57;5.72;;;3.88;;
42488;SDS011;28118;52.388;9.452;2022-11-15T14:04:30;5.03;;;4.53;;
42488;SDS011;28118;52.388;9.452;2022-11-15T14:06:59;5.15;;;4.03;;
42488;SDS011;28118;52.388;9.452;2022-11-15T14:09:35;7.40;;;5.03;;
42488;SDS011;28118;52.388;9.452;2022-11-15T14:12:22;6.47;;;4.95;;
42488;SDS011;28118;52.388;9.452;2022-11-15T14:14:57;8.93;;;5.10;;
42488;SDS011;28118;52.388;9.452;2022-11-15T14:19:55;7.88;;;4.97;;
42488;SDS011;28118;52.388;9.452;2022-11-15T14:22:26;7.75;;;5.00;;
42488;SDS011;28118;52.388;9.452;2022-11-15T14:27:40;7.93;;;5.38;;
42488;SDS011;28118;52.388;9.452;2022-11-15T14:30:17;7.30;;;4.07;;
42488;SDS011;28118;52.388;9.452;2022-11-15T14:32:45;5.43;;;3.55;;
42488;SDS011;28118;52.388;9.452;2022-11-15T14:35:17;8.25;;;5.10;;
42488;SDS011;28118;52.388;9.452;2022-11-15T14:37:47;12.13;;;5.97;;
42488;SDS011;28118;52.388;9.452;2022-11-15T14:40:16;5.85;;;4.85;;
42488;SDS011;28118;52.388;9.452;2022-11-15T14:42:44;4.78;;;4.15;;
42488;SDS011;28118;52.388;9.452;2022-11-15T14:45:13;7.22;;;5.00;;
42488;SDS011;28118;52.388;9.452;2022-11-15T14:47:43;3.92;;;3.55;;
42488;SDS011;28118;52.388;9.452;2022-11-15T14:50:11;9.18;;;5.85;;
42488;SDS011;28118;52.388;9.452;2022-11-15T14:52:39;6.55;;;5.35;;
42488;SDS011;28118;52.388;9.452;2022-11-15T14:55:25;6.47;;;4.28;;
42488;SDS011;28118;52.388;9.452;2022-11-15T14:57:54;6.43;;;5.63;;
42488;SDS011;28118;52.388;9.452;2022-11-15T15:00:21;6.70;;;5.15;;
42488;SDS011;28118;52.388;9.452;2022-11-15T15:02:49;6.30;;;4.43;;
42488;SDS011;28118;52.388;9.452;2022-11-15T15:05:19;5.97;;;4.43;;
42488;SDS011;28118;52.388;9.452;2022-11-15T15:07:48;6.07;;;4.93;;
42488;SDS011;28118;52.388;9.452;2022-11-15T15:10:15;6.97;;;5.53;;
42488;SDS011;28118;52.388;9.452;2022-11-15T15:13:02;5.20;;;4.13;;
42488;SDS011;28118;52.388;9.452;2022-11-15T15:15:34;4.78;;;4.18;;
42488;SDS011;28118;52.388;9.452;2022-11-15T15:20:31;6.88;;;5.05;;
42488;SDS011;28118;52.388;9.452;2022-11-15T15:22:58;6.13;;;5.45;;
42488;SDS011;28118;52.388;9.452;2022-11-15T15:25:34;4.75;;;3.88;;
42488;SDS011;28118;52.388;9.452;2022-11-15T15:28:01;8.88;;;4.85;;
42488;SDS011;28118;52.388;9.452;2022-11-15T15:30:29;5.05;;;4.53;;
42488;SDS011;28118;52.388;9.452;2022-11-15T15:32:56;5.35;;;4.93;;
42488;SDS011;28118;52.388;9.452;2022-11-15T15:35:23;5.47;;;4.22;;
42488;SDS011;28118;52.388;9.452;2022-11-15T15:37:56;4.93;;;4.47;;
42488;SDS011;28118;52.388;9.452;2022-11-15T15:40:23;6.03;;;4.15;;
42488;SDS011;28118;52.388;9.452;2022-11-15T15:42:50;6.25;;;4.93;;
42488;SDS011;28118;52.388;9.452;2022-11-15T15:45:18;8.80;;;5.72;;
42488;SDS011;28118;52.388;9.452;2022-11-15T15:47:45;6.47;;;5.47;;
42488;SDS011;28118;52.388;9.452;2022-11-15T15:50:28;4.20;;;3.83;;
42488;SDS011;28118;52.388;9.452;2022-11-15T15:52:58;6.10;;;5.22;;
42488;SDS011;28118;52.388;9.452;2022-11-15T15:55:26;8.85;;;5.63;;
42488;SDS011;28118;52.388;9.452;2022-11-15T15:57:53;5.40;;;4.43;;
42488;SDS011;28118;52.388;9.452;2022-11-15T16:00:20;7.80;;;6.22;;
42488;SDS011;28118;52.388;9.452;2022-11-15T16:02:49;8.57;;;5.95;;
42488;SDS011;28118;52.388;9.452;2022-11-15T16:05:17;9.85;;;5.45;;
42488;SDS011;28118;52.388;9.452;2022-11-15T16:07:44;7.53;;;6.55;;
42488;SDS011;28118;52.388;9.452;2022-11-15T16:10:28;6.43;;;5.55;;
42488;SDS011;28118;52.388;9.452;2022-11-15T16:12:56;7.38;;;6.10;;
42488;SDS011;28118;52.388;9.452;2022-11-15T16:15:24;11.95;;;5.40;;
42488;SDS011;28118;52.388;9.452;2022-11-15T16:17:54;7.78;;;5.72;;
42488;SDS011;28118;52.388;9.452;2022-11-15T16:20:38;6.43;;;5.88;;
42488;SDS011;28118;52.388;9.452;2022-11-15T16:23:09;9.05;;;5.57;;
42488;SDS011;28118;52.388;9.452;2022-11-15T16:25:38;7.90;;;6.75;;
42488;SDS011;28118;52.388;9.452;2022-11-15T16:30:59;14.45;;;7.53;;
42488;SDS011;28118;52.388;9.452;2022-11-15T16:33:30;7.38;;;5.57;;
42488;SDS011;28118;52.388;9.452;2022-11-15T16:35:58;7.45;;;6.60;;
42488;SDS011;28118;52.388;9.452;2022-11-15T16:38:25;19.00;;;5.28;;
42488;SDS011;28118;52.388;9.452;2022-11-15T16:40:51;6.43;;;5.10;;
42488;SDS011;28118;52.388;9.452;2022-11-15T16:43:18;7.40;;;5.90;;
42488;SDS011;28118;52.388;9.452;2022-11-15T16:45:45;13.52;;;12.02;;
42488;SDS011;28118;52.388;9.452;2022-11-15T16:50:48;10.45;;;9.35;;
42488;SDS011;28118;52.388;9.452;2022-11-15T16:53:15;9.88;;;8.63;;
42488;SDS011;28118;52.388;9.452;2022-11-15T16:55:42;15.18;;;9.10;;
42488;SDS011;28118;52.388;9.452;2022-11-15T16:58:09;17.08;;;11.98;;
42488;SDS011;28118;52.388;9.452;2022-11-15T17:00:35;19.00;;;11.13;;
42488;SDS011;28118;52.388;9.452;2022-11-15T17:03:02;15.25;;;9.73;;
42488;SDS011;28118;52.388;9.452;2022-11-15T17:05:29;8.95;;;7.90;;
42488;SDS011;28118;52.388;9.452;2022-11-15T17:07:56;13.00;;;8.23;;
42488;SDS011;28118;52.388;9.452;2022-11-15T17:10:23;7.28;;;5.50;;
42488;SDS011;28118;52.388;9.452;2022-11-15T17:12:51;8.93;;;7.50;;
42488;SDS011;28118;52.388;9.452;2022-11-15T17:15:20;10.38;;;6.63;;
42488;SDS011;28118;52.388;9.452;2022-11-15T17:17:51;9.23;;;7.15;;
42488;SDS011;28118;52.388;9.452;2022-11-15T17:20:19;8.23;;;7.17;;
42488;SDS011;28118;52.388;9.452;2022-11-15T17:22:47;8.05;;;7.30;;
42488;SDS011;28118;52.388;9.452;2022-11-15T17:25:14;8.07;;;6.15;;
42488;SDS011;28118;52.388;9.452;2022-11-15T17:27:41;17.48;;;8.32;;
42488;SDS011;28118;52.388;9.452;2022-11-15T17:30:09;10.35;;;7.22;;
42488;SDS011;28118;52.388;9.452;2022-11-15T17:32:38;16.45;;;10.57;;
42488;SDS011;28118;52.388;9.452;2022-11-15T17:35:04;17.70;;;11.25;;
42488;SDS011;28118;52.388;9.452;2022-11-15T17:37:40;19.17;;;9.30;;
42488;SDS011;28118;52.388;9.452;2022-11-15T17:40:07;21.30;;;10.98;;
42488;SDS011;28118;52.388;9.452;2022-11-15T17:42:34;10.75;;;8.45;;
42488;SDS011;28118;52.388;9.452;2022-11-15T17:45:00;7.85;;;7.03;;
42488;SDS011;28118;52.388;9.452;2022-11-15T17:47:34;9.35;;;6.93;;
42488;SDS011;28118;52.388;9.452;2022-11-15T17:50:01;10.05;;;6.32;;
42488;SDS011;28118;52.388;9.452;2022-11-15T17:52:27;9.98;;;8.93;;